sensor_id;sensor_type;location;lat;lon;timestamp;temperature;humidity
23475;DHT22;11910;52.086;21.066;2022-11-20T00:01:33;-3.20;91.70
23475;DHT22;11910;52.086;21.066;2022-11-20T00:03:58;-3.10;93.60
23475;DHT22;11910;52.086;21.066;2022-11-20T00:06:25;-3.20;93.80
23475;DHT22;11910;52.086;21.066;2022-11-20T00:08:50;-3.10;94.00
23475;DHT22;11910;52.086;21.066;2022-11-20T00:11:17;-3.10;92.70
23475;DHT22;11910;52.086;21.066;2022-11-20T00:13:43;-3.10;92.70
23475;DHT22;11910;52.086;21.066;2022-11-20T00:16:10;-3.10;92.40
23475;DHT22;11910;52.086;21.066;2022-11-20T00:18:35;-3.10;93.90
23475;DHT22;11910;52.086;21.066;2022-11-20T00:21:09;-3.10;93.70
23475;DHT22;11910;52.086;21.066;2022-11-20T00:23:35;-3.00;93.90
23475;DHT22;11910;52.086;21.066;2022-11-20T00:26:04;-3.20;91.20
23475;DHT22;11910;52.086;21.066;2022-11-20T00:28:30;-3.20;92.10
23475;DHT22;11910;52.086;21.066;2022-11-20T00:31:06;-3.30;93.60
23475;DHT22;11910;52.086;21.066;2022-11-20T00:33:32;-3.30;93.90
23475;DHT22;11910;52.086;21.066;2022-11-20T00:35:59;-3.20;94.00
23475;DHT22;11910;52.086;21.066;2022-11-20T00:38:24;-3.10;94.00
23475;DHT22;11910;52.086;21.066;2022-11-20T00:41:00;-3.10;94.50
23475;DHT22;11910;52.086;21.066;2022-11-20T00:43:26;-3.10;93.90
23475;DHT22;11910;52.086;21.066;2022-11-20T00:46:02;-3.10;94.20
23475;DHT22;11910;52.086;21.066;2022-11-20T00:48:28;-3.00;93.70
23475;DHT22;11910;52.086;21.066;2022-11-20T00:50:54;-3.00;93.70
23475;DHT22;11910;52.086;21.066;2022-11-20T00:53:20;-3.00;94.20
23475;DHT22;11910;52.086;21.066;2022-11-20T00:55:55;-3.00;93.70
23475;DHT22;11910;52.086;21.066;2022-11-20T00:58:21;-2.90;93.80
23475;DHT22;11910;52.086;21.066;2022-11-20T01:00:47;-3.00;93.70
23475;DHT22;11910;52.086;21.066;2022-11-20T01:03:15;-3.00;93.20
23475;DHT22;11910;52.086;21.066;2022-11-20T01:05:40;-3.00;93.70
23475;DHT22;11910;52.086;21.066;2022-11-20T01:08:06;-3.00;93.50
23475;DHT22;11910;52.086;21.066;2022-11-20T01:10:31;-3.10;92.90
23475;DHT22;11910;52.086;21.066;2022-11-20T01:12:57;-3.20;93.60
23475;DHT22;11910;52.086;21.066;2022-11-20T01:15:41;-3.20;93.90
23475;DHT22;11910;52.086;21.066;2022-11-20T01:18:06;-3.20;94.20
23475;DHT22;11910;52.086;21.066;2022-11-20T01:20:35;-3.20;94.10
23475;DHT22;11910;52.086;21.066;2022-11-20T01:23:01;-3.20;94.00
23475;DHT22;11910;52.086;21.066;2022-11-20T01:25:27;-3.30;93.40
23475;DHT22;11910;52.086;21.066;2022-11-20T01:27:53;-3.20;93.70
23475;DHT22;11910;52.086;21.066;2022-11-20T01:30:18;-3.20;92.90
23475;DHT22;11910;52.086;21.066;2022-11-20T01:32:44;-3.20;93.50
23475;DHT22;11910;52.086;21.066;2022-11-20T01:35:09;-3.30;94.50
23475;DHT22;11910;52.086;21.066;2022-11-20T01:37:35;-3.30;94.30
23475;DHT22;11910;52.086;21.066;2022-11-20T01:40:00;-3.30;94.30
23475;DHT22;11910;52.086;21.066;2022-11-20T01:42:26;-3.30;94.10
23475;DHT22;11910;52.086;21.066;2022-11-20T01:47:55;-3.30;94.10
23475;DHT22;11910;52.086;21.066;2022-11-20T01:50:24;-3.10;94.90
23475;DHT22;11910;52.086;21.066;2022-11-20T01:52:52;-3.00;94.90
23475;DHT22;11910;52.086;21.066;2022-11-20T01:55:21;-3.00;94.70
23475;DHT22;11910;52.086;21.066;2022-11-20T01:57:49;-2.90;94.30
23475;DHT22;11910;52.086;21.066;2022-11-20T02:00:16;-3.00;93.50
23475;DHT22;11910;52.086;21.066;2022-11-20T02:02:42;-2.90;93.50
23475;DHT22;11910;52.086;21.066;2022-11-20T02:05:12;-3.00;94.40
23475;DHT22;11910;52.086;21.066;2022-11-20T02:07:39;-3.10;94.50
23475;DHT22;11910;52.086;21.066;2022-11-20T02:10:05;-3.00;95.20
23475;DHT22;11910;52.086;21.066;2022-11-20T02:12:31;-3.10;94.90
23475;DHT22;11910;52.086;21.066;2022-11-20T02:15:16;-3.20;95.10
23475;DHT22;11910;52.086;21.066;2022-11-20T02:17:41;-3.20;95.10
23475;DHT22;11910;52.086;21.066;2022-11-20T02:20:07;-3.10;95.50
23475;DHT22;11910;52.086;21.066;2022-11-20T02:22:38;-3.10;95.80
23475;DHT22;11910;52.086;21.066;2022-11-20T02:25:06;-3.10;95.60
23475;DHT22;11910;52.086;21.066;2022-11-20T02:27:32;-3.10;95.20
23475;DHT22;11910;52.086;21.066;2022-11-20T02:30:01;-3.10;95.50
23475;DHT22;11910;52.086;21.066;2022-11-20T02:32:28;-3.00;95.80
23475;DHT22;11910;52.086;21.066;2022-11-20T02:34:54;-2.90;95.20
23475;DHT22;11910;52.086;21.066;2022-11-20T02:37:20;-3.00;94.20
23475;DHT22;11910;52.086;21.066;2022-11-20T02:39:46;-2.80;94.90
23475;DHT22;11910;52.086;21.066;2022-11-20T02:42:12;-2.60;94.50
23475;DHT22;11910;52.086;21.066;2022-11-20T02:44:38;-2.60;94.10
23475;DHT22;11910;52.086;21.066;2022-11-20T02:47:04;-2.70;91.90
23475;DHT22;11910;52.086;21.066;2022-11-20T02:49:30;-2.70;94.30
23475;DHT22;11910;52.086;21.066;2022-11-20T02:51:55;-2.80;95.20
23475;DHT22;11910;52.086;21.066;2022-11-20T02:54:21;-2.80;95.40
23475;DHT22;11910;52.086;21.066;2022-11-20T02:56:46;-2.80;95.20
23475;DHT22;11910;52.086;21.066;2022-11-20T02:59:12;-2.80;95.40
23475;DHT22;11910;52.086;21.066;2022-11-20T03:01:37;-2.80;95.80
23475;DHT22;11910;52.086;21.066;2022-11-20T03:04:03;-2.90;94.50
23475;DHT22;11910;52.086;21.066;2022-11-20T03:06:28;-3.00;95.10
23475;DHT22;11910;52.086;21.066;2022-11-20T03:08:54;-3.00;95.70
23475;DHT22;11910;52.086;21.066;2022-11-20T03:11:19;-3.10;95.40
23475;DHT22;11910;52.086;21.066;2022-11-20T03:13:45;-3.10;95.40
23475;DHT22;11910;52.086;21.066;2022-11-20T03:16:14;-3.00;95.30
23475;DHT22;11910;52.086;21.066;2022-11-20T03:18:40;-3.00;95.60
23475;DHT22;11910;52.086;21.066;2022-11-20T03:21:06;-3.00;96.00
23475;DHT22;11910;52.086;21.066;2022-11-20T03:23:32;-3.10;95.30
23475;DHT22;11910;52.086;21.066;2022-11-20T03:26:11;-3.10;96.40
23475;DHT22;11910;52.086;21.066;2022-11-20T03:28:37;-3.00;94.90
23475;DHT22;11910;52.086;21.066;2022-11-20T03:31:10;-3.00;95.40
23475;DHT22;11910;52.086;21.066;2022-11-20T03:33:35;-3.00;95.50
23475;DHT22;11910;52.086;21.066;2022-11-20T03:36:02;-2.90;95.70
23475;DHT22;11910;52.086;21.066;2022-11-20T03:38:31;-3.10;92.50
23475;DHT22;11910;52.086;21.066;2022-11-20T03:40:58;-3.10;95.20
23475;DHT22;11910;52.086;21.066;2022-11-20T03:43:24;-3.30;96.20
23475;DHT22;11910;52.086;21.066;2022-11-20T03:45:49;-3.30;93.00
23475;DHT22;11910;52.086;21.066;2022-11-20T03:48:14;-3.10;94.90
23475;DHT22;11910;52.086;21.066;2022-11-20T03:50:40;-3.30;94.60
23475;DHT22;11910;52.086;21.066;2022-11-20T03:53:05;-3.40;96.20
23475;DHT22;11910;52.086;21.066;2022-11-20T03:55:31;-3.40;95.70
23475;DHT22;11910;52.086;21.066;2022-11-20T03:57:56;-3.50;96.20
23475;DHT22;11910;52.086;21.066;2022-11-20T04:00:22;-3.60;97.00
23475;DHT22;11910;52.086;21.066;2022-11-20T04:02:47;-3.70;93.50
23475;DHT22;11910;52.086;21.066;2022-11-20T04:05:13;-3.80;93.80
23475;DHT22;11910;52.086;21.066;2022-11-20T04:07:38;-3.80;94.00
23475;DHT22;11910;52.086;21.066;2022-11-20T04:10:04;-3.70;94.00
23475;DHT22;11910;52.086;21.066;2022-11-20T04:12:31;-3.70;94.20
23475;DHT22;11910;52.086;21.066;2022-11-20T04:14:57;-3.70;93.70
23475;DHT22;11910;52.086;21.066;2022-11-20T04:17:22;-3.70;93.80
23475;DHT22;11910;52.086;21.066;2022-11-20T04:19:48;-3.90;93.90
23475;DHT22;11910;52.086;21.066;2022-11-20T04:22:13;-3.90;94.20
23475;DHT22;11910;52.086;21.066;2022-11-20T04:24:39;-4.00;94.20
23475;DHT22;11910;52.086;21.066;2022-11-20T04:27:04;-4.00;94.30
23475;DHT22;11910;52.086;21.066;2022-11-20T04:29:30;-4.10;94.30
23475;DHT22;11910;52.086;21.066;2022-11-20T04:31:55;-4.10;94.30
23475;DHT22;11910;52.086;21.066;2022-11-20T04:34:21;-4.10;94.30
23475;DHT22;11910;52.086;21.066;2022-11-20T04:36:46;-4.10;94.30
23475;DHT22;11910;52.086;21.066;2022-11-20T04:39:12;-4.10;94.20
23475;DHT22;11910;52.086;21.066;2022-11-20T04:41:38;-4.20;94.30
23475;DHT22;11910;52.086;21.066;2022-11-20T04:44:04;-4.20;94.30
23475;DHT22;11910;52.086;21.066;2022-11-20T04:46:34;-4.20;94.40
23475;DHT22;11910;52.086;21.066;2022-11-20T04:49:00;-4.20;94.20
23475;DHT22;11910;52.086;21.066;2022-11-20T04:51:26;-4.20;94.40
23475;DHT22;11910;52.086;21.066;2022-11-20T04:53:52;-4.20;94.20
23475;DHT22;11910;52.086;21.066;2022-11-20T04:56:17;-4.20;94.20
23475;DHT22;11910;52.086;21.066;2022-11-20T04:58:43;-4.20;94.00
23475;DHT22;11910;52.086;21.066;2022-11-20T05:01:10;-4.20;94.20
23475;DHT22;11910;52.086;21.066;2022-11-20T05:03:36;-4.20;94.20
23475;DHT22;11910;52.086;21.066;2022-11-20T05:06:02;-4.20;94.30
23475;DHT22;11910;52.086;21.066;2022-11-20T05:08:29;-4.20;94.20
23475;DHT22;11910;52.086;21.066;2022-11-20T05:10:59;-4.30;94.30
23475;DHT22;11910;52.086;21.066;2022-11-20T05:13:24;-4.30;94.30
23475;DHT22;11910;52.086;21.066;2022-11-20T05:15:50;-4.30;94.40
23475;DHT22;11910;52.086;21.066;2022-11-20T05:18:15;-4.30;94.30
23475;DHT22;11910;52.086;21.066;2022-11-20T05:20:41;-4.40;94.40
23475;DHT22;11910;52.086;21.066;2022-11-20T05:23:06;-4.40;94.50
23475;DHT22;11910;52.086;21.066;2022-11-20T05:25:32;-4.40;94.50
23475;DHT22;11910;52.086;21.066;2022-11-20T05:27:57;-4.40;94.60
23475;DHT22;11910;52.086;21.066;2022-11-20T05:30:22;-4.30;94.40
23475;DHT22;11910;52.086;21.066;2022-11-20T05:32:48;-4.30;94.20
23475;DHT22;11910;52.086;21.066;2022-11-20T05:35:13;-4.30;94.20
23475;DHT22;11910;52.086;21.066;2022-11-20T05:37:39;-4.30;94.20
23475;DHT22;11910;52.086;21.066;2022-11-20T05:40:05;-4.20;94.00
23475;DHT22;11910;52.086;21.066;2022-11-20T05:42:30;-4.00;94.00
23475;DHT22;11910;52.086;21.066;2022-11-20T05:44:57;-3.80;93.50
23475;DHT22;11910;52.086;21.066;2022-11-20T05:47:22;-3.50;93.30
23475;DHT22;11910;52.086;21.066;2022-11-20T05:49:48;-3.40;92.70
23475;DHT22;11910;52.086;21.066;2022-11-20T05:52:13;-3.50;92.30
23475;DHT22;11910;52.086;21.066;2022-11-20T05:54:38;-3.60;92.10
23475;DHT22;11910;52.086;21.066;2022-11-20T05:57:04;-3.60;91.50
23475;DHT22;11910;52.086;21.066;2022-11-20T05:59:29;-3.70;91.50
23475;DHT22;11910;52.086;21.066;2022-11-20T06:01:55;-3.60;90.90
23475;DHT22;11910;52.086;21.066;2022-11-20T06:04:20;-3.40;91.40
23475;DHT22;11910;52.086;21.066;2022-11-20T06:06:46;-3.20;91.50
23475;DHT22;11910;52.086;21.066;2022-11-20T06:09:11;-3.20;91.20
23475;DHT22;11910;52.086;21.066;2022-11-20T06:11:37;-3.30;89.70
23475;DHT22;11910;52.086;21.066;2022-11-20T06:14:02;-3.40;89.60
23475;DHT22;11910;52.086;21.066;2022-11-20T06:16:28;-3.60;89.80
23475;DHT22;11910;52.086;21.066;2022-11-20T06:18:53;-3.80;89.50
23475;DHT22;11910;52.086;21.066;2022-11-20T06:21:20;-3.90;90.80
23475;DHT22;11910;52.086;21.066;2022-11-20T06:23:46;-3.80;91.20
23475;DHT22;11910;52.086;21.066;2022-11-20T06:26:13;-3.90;91.60
23475;DHT22;11910;52.086;21.066;2022-11-20T06:28:39;-3.80;91.90
23475;DHT22;11910;52.086;21.066;2022-11-20T06:31:06;-3.80;92.00
23475;DHT22;11910;52.086;21.066;2022-11-20T06:33:31;-3.90;92.20
23475;DHT22;11910;52.086;21.066;2022-11-20T06:35:57;-3.90;92.70
23475;DHT22;11910;52.086;21.066;2022-11-20T06:38:23;-3.90;92.80
23475;DHT22;11910;52.086;21.066;2022-11-20T06:40:49;-3.90;92.80
23475;DHT22;11910;52.086;21.066;2022-11-20T06:43:14;-3.90;93.00
23475;DHT22;11910;52.086;21.066;2022-11-20T06:45:40;-3.90;93.00
23475;DHT22;11910;52.086;21.066;2022-11-20T06:48:05;-3.80;93.20
23475;DHT22;11910;52.086;21.066;2022-11-20T06:50:31;-3.60;92.90
23475;DHT22;11910;52.086;21.066;2022-11-20T06:52:59;-3.50;92.90
23475;DHT22;11910;52.086;21.066;2022-11-20T06:55:25;-3.50;92.90
23475;DHT22;11910;52.086;21.066;2022-11-20T06:57:50;-3.40;92.90
23475;DHT22;11910;52.086;21.066;2022-11-20T07:00:16;-3.30;92.70
23475;DHT22;11910;52.086;21.066;2022-11-20T07:02:41;-3.10;92.50
23475;DHT22;11910;52.086;21.066;2022-11-20T07:05:07;-2.90;92.20
23475;DHT22;11910;52.086;21.066;2022-11-20T07:07:32;-2.90;92.40
23475;DHT22;11910;52.086;21.066;2022-11-20T07:09:58;-2.70;92.00
23475;DHT22;11910;52.086;21.066;2022-11-20T07:12:23;-2.60;91.80
23475;DHT22;11910;52.086;21.066;2022-11-20T07:14:49;-2.70;91.80
23475;DHT22;11910;52.086;21.066;2022-11-20T07:17:15;-2.60;91.80
23475;DHT22;11910;52.086;21.066;2022-11-20T07:19:40;-2.60;92.10
23475;DHT22;11910;52.086;21.066;2022-11-20T07:22:08;-2.70;92.10
23475;DHT22;11910;52.086;21.066;2022-11-20T07:24:33;-2.70;92.50
23475;DHT22;11910;52.086;21.066;2022-11-20T07:26:59;-2.80;92.20
23475;DHT22;11910;52.086;21.066;2022-11-20T07:29:24;-2.90;92.60
23475;DHT22;11910;52.086;21.066;2022-11-20T07:31:50;-2.80;93.10
23475;DHT22;11910;52.086;21.066;2022-11-20T07:34:15;-2.80;92.90
23475;DHT22;11910;52.086;21.066;2022-11-20T07:36:41;-2.90;92.80
23475;DHT22;11910;52.086;21.066;2022-11-20T07:39:06;-2.80;93.00
23475;DHT22;11910;52.086;21.066;2022-11-20T07:41:32;-2.90;93.10
23475;DHT22;11910;52.086;21.066;2022-11-20T07:43:57;-2.60;93.20
23475;DHT22;11910;52.086;21.066;2022-11-20T07:46:23;-2.50;92.90
23475;DHT22;11910;52.086;21.066;2022-11-20T07:48:48;-2.50;92.90
23475;DHT22;11910;52.086;21.066;2022-11-20T07:51:14;-2.40;92.60
23475;DHT22;11910;52.086;21.066;2022-11-20T07:53:40;-2.30;92.30
23475;DHT22;11910;52.086;21.066;2022-11-20T07:56:05;-2.30;92.90
23475;DHT22;11910;52.086;21.066;2022-11-20T07:58:31;-2.20;92.80
23475;DHT22;11910;52.086;21.066;2022-11-20T08:01:01;-2.10;92.60
23475;DHT22;11910;52.086;21.066;2022-11-20T08:03:27;-1.90;92.60
23475;DHT22;11910;52.086;21.066;2022-11-20T08:05:53;-1.80;92.30
23475;DHT22;11910;52.086;21.066;2022-11-20T08:08:18;-1.80;92.20
23475;DHT22;11910;52.086;21.066;2022-11-20T08:10:44;-1.80;92.60
23475;DHT22;11910;52.086;21.066;2022-11-20T08:13:09;-1.70;92.60
23475;DHT22;11910;52.086;21.066;2022-11-20T08:15:53;-1.60;91.90
23475;DHT22;11910;52.086;21.066;2022-11-20T08:18:19;-1.40;91.90
23475;DHT22;11910;52.086;21.066;2022-11-20T08:20:44;-1.60;91.80
23475;DHT22;11910;52.086;21.066;2022-11-20T08:23:10;-1.50;91.90
23475;DHT22;11910;52.086;21.066;2022-11-20T08:25:36;-1.40;92.20
23475;DHT22;11910;52.086;21.066;2022-11-20T08:28:03;-1.30;92.10
23475;DHT22;11910;52.086;21.066;2022-11-20T08:30:29;-1.30;91.90
23475;DHT22;11910;52.086;21.066;2022-11-20T08:33:00;-1.30;91.70
23475;DHT22;11910;52.086;21.066;2022-11-20T08:35:26;-1.20;91.90
23475;DHT22;11910;52.086;21.066;2022-11-20T08:37:51;-1.20;91.70
23475;DHT22;11910;52.086;21.066;2022-11-20T08:40:17;-0.60;91.20
23475;DHT22;11910;52.086;21.066;2022-11-20T08:42:49;0.20;90.40
23475;DHT22;11910;52.086;21.066;2022-11-20T08:45:15;0.00;90.00
23475;DHT22;11910;52.086;21.066;2022-11-20T08:47:41;0.60;88.70
23475;DHT22;11910;52.086;21.066;2022-11-20T08:50:07;0.50;88.70
23475;DHT22;11910;52.086;21.066;2022-11-20T08:52:33;1.30;86.40
23475;DHT22;11910;52.086;21.066;2022-11-20T08:54:58;1.90;85.50
23475;DHT22;11910;52.086;21.066;2022-11-20T08:57:24;2.50;83.90
23475;DHT22;11910;52.086;21.066;2022-11-20T08:59:49;2.60;82.30
23475;DHT22;11910;52.086;21.066;2022-11-20T09:02:15;1.70;84.50
23475;DHT22;11910;52.086;21.066;2022-11-20T09:04:40;1.10;86.00
23475;DHT22;11910;52.086;21.066;2022-11-20T09:07:06;0.80;88.00
23475;DHT22;11910;52.086;21.066;2022-11-20T09:09:31;0.80;88.60
23475;DHT22;11910;52.086;21.066;2022-11-20T09:11:57;0.70;88.50
23475;DHT22;11910;52.086;21.066;2022-11-20T09:14:23;0.60;89.60
23475;DHT22;11910;52.086;21.066;2022-11-20T09:16:56;0.50;89.80
23475;DHT22;11910;52.086;21.066;2022-11-20T09:19:23;0.40;90.00
23475;DHT22;11910;52.086;21.066;2022-11-20T09:21:48;0.40;90.40
23475;DHT22;11910;52.086;21.066;2022-11-20T09:24:14;0.30;90.70
23475;DHT22;11910;52.086;21.066;2022-11-20T09:26:39;0.50;90.60
23475;DHT22;11910;52.086;21.066;2022-11-20T09:29:05;0.50;90.60
23475;DHT22;11910;52.086;21.066;2022-11-20T09:31:31;0.60;90.30
23475;DHT22;11910;52.086;21.066;2022-11-20T09:33:56;0.70;90.80
23475;DHT22;11910;52.086;21.066;2022-11-20T09:36:22;0.60;90.40
23475;DHT22;11910;52.086;21.066;2022-11-20T09:38:48;0.70;90.60
23475;DHT22;11910;52.086;21.066;2022-11-20T09:46:26;0.50;90.80
23475;DHT22;11910;52.086;21.066;2022-11-20T09:48:57;0.40;91.00
23475;DHT22;11910;52.086;21.066;2022-11-20T09:54:16;0.60;91.00
23475;DHT22;11910;52.086;21.066;2022-11-20T09:56:44;0.80;91.20
23475;DHT22;11910;52.086;21.066;2022-11-20T09:59:33;0.90;90.80
23475;DHT22;11910;52.086;21.066;2022-11-20T10:01:55;1.00;90.70
23475;DHT22;11910;52.086;21.066;2022-11-20T10:04:22;1.00;90.40
23475;DHT22;11910;52.086;21.066;2022-11-20T10:06:56;0.90;90.50
23475;DHT22;11910;52.086;21.066;2022-11-20T10:14:41;1.10;90.70
23475;DHT22;11910;52.086;21.066;2022-11-20T10:19:45;1.20;90.40
23475;DHT22;11910;52.086;21.066;2022-11-20T10:22:17;1.40;90.00
23475;DHT22;11910;52.086;21.066;2022-11-20T10:25:06;1.40;90.00
23475;DHT22;11910;52.086;21.066;2022-11-20T10:30:19;1.30;90.40
23475;DHT22;11910;52.086;21.066;2022-11-20T10:32:49;1.50;90.40
23475;DHT22;11910;52.086;21.066;2022-11-20T10:35:20;1.60;90.00
23475;DHT22;11910;52.086;21.066;2022-11-20T10:37:49;1.70;89.30
23475;DHT22;11910;52.086;21.066;2022-11-20T10:40:31;1.80;89.80
23475;DHT22;11910;52.086;21.066;2022-11-20T10:42:59;1.80;89.20
23475;DHT22;11910;52.086;21.066;2022-11-20T10:45:31;1.80;88.80
23475;DHT22;11910;52.086;21.066;2022-11-20T10:50:32;2.40;88.20
23475;DHT22;11910;52.086;21.066;2022-11-20T11:01:14;3.50;83.30
23475;DHT22;11910;52.086;21.066;2022-11-20T11:03:40;3.30;84.10
23475;DHT22;11910;52.086;21.066;2022-11-20T11:08:53;3.20;84.50
23475;DHT22;11910;52.086;21.066;2022-11-20T11:11:22;3.30;84.60
23475;DHT22;11910;52.086;21.066;2022-11-20T11:13:49;3.50;85.00
23475;DHT22;11910;52.086;21.066;2022-11-20T11:16:24;3.50;83.20
23475;DHT22;11910;52.086;21.066;2022-11-20T11:18:50;3.60;83.30
23475;DHT22;11910;52.086;21.066;2022-11-20T11:21:22;3.60;82.80
23475;DHT22;11910;52.086;21.066;2022-11-20T11:23:56;3.90;82.40
23475;DHT22;11910;52.086;21.066;2022-11-20T11:26:23;4.60;80.70
23475;DHT22;11910;52.086;21.066;2022-11-20T11:28:53;5.10;78.50
23475;DHT22;11910;52.086;21.066;2022-11-20T11:31:23;5.20;77.70
23475;DHT22;11910;52.086;21.066;2022-11-20T11:33:48;5.90;77.00
23475;DHT22;11910;52.086;21.066;2022-11-20T11:36:16;6.50;75.50
23475;DHT22;11910;52.086;21.066;2022-11-20T11:38:43;6.50;73.00
23475;DHT22;11910;52.086;21.066;2022-11-20T11:41:12;6.80;72.30
23475;DHT22;11910;52.086;21.066;2022-11-20T11:43:40;7.20;72.00
23475;DHT22;11910;52.086;21.066;2022-11-20T11:46:33;7.50;71.00
23475;DHT22;11910;52.086;21.066;2022-11-20T11:51:33;7.80;68.50
23475;DHT22;11910;52.086;21.066;2022-11-20T11:54:00;7.80;69.10
23475;DHT22;11910;52.086;21.066;2022-11-20T11:56:29;8.00;69.20
23475;DHT22;11910;52.086;21.066;2022-11-20T11:58:56;7.80;67.90
23475;DHT22;11910;52.086;21.066;2022-11-20T12:01:28;8.00;68.50
23475;DHT22;11910;52.086;21.066;2022-11-20T12:06:35;7.90;67.60
23475;DHT22;11910;52.086;21.066;2022-11-20T12:09:05;8.10;65.90
23475;DHT22;11910;52.086;21.066;2022-11-20T12:11:46;7.50;67.00
23475;DHT22;11910;52.086;21.066;2022-11-20T12:14:23;7.00;68.90
23475;DHT22;11910;52.086;21.066;2022-11-20T12:16:52;6.30;71.20
23475;DHT22;11910;52.086;21.066;2022-11-20T12:19:18;6.10;72.20
23475;DHT22;11910;52.086;21.066;2022-11-20T12:21:50;5.90;72.60
23475;DHT22;11910;52.086;21.066;2022-11-20T12:26:54;6.50;72.20
23475;DHT22;11910;52.086;21.066;2022-11-20T12:39:32;6.60;71.20
23475;DHT22;11910;52.086;21.066;2022-11-20T12:52:46;4.60;76.60
23475;DHT22;11910;52.086;21.066;2022-11-20T12:55:14;4.60;77.70
23475;DHT22;11910;52.086;21.066;2022-11-20T12:57:58;4.20;77.90
23475;DHT22;11910;52.086;21.066;2022-11-20T13:00:26;4.00;78.10
23475;DHT22;11910;52.086;21.066;2022-11-20T13:07:55;3.80;79.60
23475;DHT22;11910;52.086;21.066;2022-11-20T13:12:56;3.70;80.20
23475;DHT22;11910;52.086;21.066;2022-11-20T13:17:52;3.30;81.30
23475;DHT22;11910;52.086;21.066;2022-11-20T13:20:19;3.20;82.30
23475;DHT22;11910;52.086;21.066;2022-11-20T13:22:46;3.00;83.60
23475;DHT22;11910;52.086;21.066;2022-11-20T13:27:49;2.90;83.70
23475;DHT22;11910;52.086;21.066;2022-11-20T13:30:17;2.80;83.90
23475;DHT22;11910;52.086;21.066;2022-11-20T13:35:26;2.60;84.80
23475;DHT22;11910;52.086;21.066;2022-11-20T13:40:27;2.40;85.50
23475;DHT22;11910;52.086;21.066;2022-11-20T13:45:37;2.30;86.70
23475;DHT22;11910;52.086;21.066;2022-11-20T13:48:04;2.20;88.10
23475;DHT22;11910;52.086;21.066;2022-11-20T13:53:04;2.00;88.40
23475;DHT22;11910;52.086;21.066;2022-11-20T13:55:41;1.90;88.60
23475;DHT22;11910;52.086;21.066;2022-11-20T13:58:15;1.90;89.00
23475;DHT22;11910;52.086;21.066;2022-11-20T14:00:50;1.90;89.20
23475;DHT22;11910;52.086;21.066;2022-11-20T14:03:23;1.80;89.40
23475;DHT22;11910;52.086;21.066;2022-11-20T14:05:51;1.70;89.80
23475;DHT22;11910;52.086;21.066;2022-11-20T14:08:21;1.60;90.40
23475;DHT22;11910;52.086;21.066;2022-11-20T14:10:48;1.50;91.10
23475;DHT22;11910;52.086;21.066;2022-11-20T14:13:17;1.40;91.40
23475;DHT22;11910;52.086;21.066;2022-11-20T14:15:43;1.20;91.60
23475;DHT22;11910;52.086;21.066;2022-11-20T14:18:14;1.10;92.00
23475;DHT22;11910;52.086;21.066;2022-11-20T14:20:41;1.00;92.40
23475;DHT22;11910;52.086;21.066;2022-11-20T14:23:09;0.90;92.50
23475;DHT22;11910;52.086;21.066;2022-11-20T14:25:35;0.80;92.70
23475;DHT22;11910;52.086;21.066;2022-11-20T14:28:01;0.80;92.80
23475;DHT22;11910;52.086;21.066;2022-11-20T14:30:37;0.90;92.80
23475;DHT22;11910;52.086;21.066;2022-11-20T14:33:04;0.70;93.00
23475;DHT22;11910;52.086;21.066;2022-11-20T14:35:30;0.70;93.20
23475;DHT22;11910;52.086;21.066;2022-11-20T14:37:56;0.60;93.20
23475;DHT22;11910;52.086;21.066;2022-11-20T14:40:23;0.60;93.40
23475;DHT22;11910;52.086;21.066;2022-11-20T14:42:49;0.50;93.50
23475;DHT22;11910;52.086;21.066;2022-11-20T14:45:15;0.50;93.60
23475;DHT22;11910;52.086;21.066;2022-11-20T14:47:41;0.40;93.40
23475;DHT22;11910;52.086;21.066;2022-11-20T14:50:18;0.50;93.60
23475;DHT22;11910;52.086;21.066;2022-11-20T14:52:51;0.40;93.50
23475;DHT22;11910;52.086;21.066;2022-11-20T14:57:55;0.40;93.50
23475;DHT22;11910;52.086;21.066;2022-11-20T15:00:21;0.30;93.60
23475;DHT22;11910;52.086;21.066;2022-11-20T15:02:48;0.20;94.20
23475;DHT22;11910;52.086;21.066;2022-11-20T15:05:14;0.10;94.00
23475;DHT22;11910;52.086;21.066;2022-11-20T15:07:41;0.10;94.10
23475;DHT22;11910;52.086;21.066;2022-11-20T15:10:11;0.10;94.10
23475;DHT22;11910;52.086;21.066;2022-11-20T15:12:45;0.00;94.10
23475;DHT22;11910;52.086;21.066;2022-11-20T15:15:12;-0.10;94.30
23475;DHT22;11910;52.086;21.066;2022-11-20T15:17:40;-0.10;94.30
23475;DHT22;11910;52.086;21.066;2022-11-20T15:20:08;-0.10;94.40
23475;DHT22;11910;52.086;21.066;2022-11-20T15:22:35;0.00;94.30
23475;DHT22;11910;52.086;21.066;2022-11-20T15:25:01;0.00;94.30
23475;DHT22;11910;52.086;21.066;2022-11-20T15:27:26;0.00;94.30
23475;DHT22;11910;52.086;21.066;2022-11-20T15:29:52;-0.10;94.40
23475;DHT22;11910;52.086;21.066;2022-11-20T15:32:17;-0.10;94.30
23475;DHT22;11910;52.086;21.066;2022-11-20T15:34:43;-0.10;94.40
23475;DHT22;11910;52.086;21.066;2022-11-20T15:37:08;-0.10;94.40
23475;DHT22;11910;52.086;21.066;2022-11-20T15:39:34;-0.10;94.50
23475;DHT22;11910;52.086;21.066;2022-11-20T15:41:59;-0.20;94.60
23475;DHT22;11910;52.086;21.066;2022-11-20T15:44:25;-0.20;94.60
23475;DHT22;11910;52.086;21.066;2022-11-20T15:46:50;-0.30;94.60
23475;DHT22;11910;52.086;21.066;2022-11-20T15:49:16;-0.30;94.70
23475;DHT22;11910;52.086;21.066;2022-11-20T15:51:44;-0.40;94.80
23475;DHT22;11910;52.086;21.066;2022-11-20T15:54:12;-0.40;94.80
23475;DHT22;11910;52.086;21.066;2022-11-20T15:56:38;-0.50;94.70
23475;DHT22;11910;52.086;21.066;2022-11-20T15:59:04;-0.50;95.10
23475;DHT22;11910;52.086;21.066;2022-11-20T16:01:29;-0.60;95.10
23475;DHT22;11910;52.086;21.066;2022-11-20T16:03:55;-0.60;95.20
23475;DHT22;11910;52.086;21.066;2022-11-20T16:06:21;-0.60;95.00
23475;DHT22;11910;52.086;21.066;2022-11-20T16:08:47;-0.60;95.00
23475;DHT22;11910;52.086;21.066;2022-11-20T16:11:13;-0.60;95.10
23475;DHT22;11910;52.086;21.066;2022-11-20T16:13:39;-0.60;95.20
23475;DHT22;11910;52.086;21.066;2022-11-20T16:16:25;-0.70;94.90
23475;DHT22;11910;52.086;21.066;2022-11-20T16:18:54;-0.70;95.00
23475;DHT22;11910;52.086;21.066;2022-11-20T16:21:19;-0.70;95.10
23475;DHT22;11910;52.086;21.066;2022-11-20T16:23:45;-0.60;95.30
23475;DHT22;11910;52.086;21.066;2022-11-20T16:26:15;-0.60;95.00
23475;DHT22;11910;52.086;21.066;2022-11-20T16:28:42;-0.60;95.00
23475;DHT22;11910;52.086;21.066;2022-11-20T16:31:11;-0.50;94.90
23475;DHT22;11910;52.086;21.066;2022-11-20T16:33:37;-0.40;94.50
23475;DHT22;11910;52.086;21.066;2022-11-20T16:36:10;-0.50;94.70
23475;DHT22;11910;52.086;21.066;2022-11-20T16:38:35;-0.50;94.80
23475;DHT22;11910;52.086;21.066;2022-11-20T16:41:01;-0.50;94.80
23475;DHT22;11910;52.086;21.066;2022-11-20T16:43:27;-0.50;94.70
23475;DHT22;11910;52.086;21.066;2022-11-20T16:45:52;-0.50;94.70
23475;DHT22;11910;52.086;21.066;2022-11-20T16:48:18;-0.50;94.80
23475;DHT22;11910;52.086;21.066;2022-11-20T16:50:50;-0.60;94.90